Sugar Ridge, Indiana
Current Conditions -  °F | °C
As of 5:53 PM on Wednesday 22 Oct 2014 (Local Time) from KHUF Reporting Station
Clear Clear  
Wind Chill: 58°   Ceiling: Unl
Heat Index: 58°   Visibility: 10mi
Dew Point: 41°   Wind: 5mph
Humidity: 53%   Direction: 70°ENE
Pressure: 30.25"   Gusts: NA
Location:  39.3787°N, 87.0992°W
Report Text: KHUF 222153Z 07004KT 10SM CLR 14/05 A3025 RMK AO2 SLP245 T01440050
Loading
Personal Weather Stations






























Interactive Weather Map
Tropical Storm Tracking
New forecast layout! Learn more

10-Day Weather Forecast

Advertisements
Track Severe Weather on mobile